sensor_id;sensor_type;location;lat;lon;timestamp;P1;durP1;ratioP1;P2;durP2;ratioP2
61477;SDS011;47345;52.334;10.392;2023-12-22T00:01:47;9.60;;;2.80;;
61477;SDS011;47345;52.334;10.392;2023-12-22T00:04:15;10.10;;;2.70;;
61477;SDS011;47345;52.334;10.392;2023-12-22T00:06:43;13.60;;;2.80;;
61477;SDS011;47345;52.334;10.392;2023-12-22T00:09:11;11.10;;;2.80;;
61477;SDS011;47345;52.334;10.392;2023-12-22T00:11:38;7.90;;;2.80;;
61477;SDS011;47345;52.334;10.392;2023-12-22T00:14:06;8.90;;;2.60;;
61477;SDS011;47345;52.334;10.392;2023-12-22T00:16:34;11.00;;;2.10;;
61477;SDS011;47345;52.334;10.392;2023-12-22T00:19:04;14.40;;;2.50;;
61477;SDS011;47345;52.334;10.392;2023-12-22T00:21:31;12.50;;;3.90;;
61477;SDS011;47345;52.334;10.392;2023-12-22T00:23:59;12.60;;;3.00;;
61477;SDS011;47345;52.334;10.392;2023-12-22T00:26:27;10.70;;;2.80;;
61477;SDS011;47345;52.334;10.392;2023-12-22T00:28:54;14.00;;;3.30;;
61477;SDS011;47345;52.334;10.392;2023-12-22T00:31:22;8.60;;;2.90;;
61477;SDS011;47345;52.334;10.392;2023-12-22T00:33:50;15.90;;;3.30;;
61477;SDS011;47345;52.334;10.392;2023-12-22T00:36:17;15.00;;;3.60;;
61477;SDS011;47345;52.334;10.392;2023-12-22T00:38:49;10.90;;;2.80;;
61477;SDS011;47345;52.334;10.392;2023-12-22T00:41:16;9.80;;;2.70;;
61477;SDS011;47345;52.334;10.392;2023-12-22T00:43:44;9.60;;;2.70;;
61477;SDS011;47345;52.334;10.392;2023-12-22T00:46:13;8.20;;;3.10;;
61477;SDS011;47345;52.334;10.392;2023-12-22T00:48:41;11.00;;;3.30;;
61477;SDS011;47345;52.334;10.392;2023-12-22T00:51:08;7.20;;;2.30;;
61477;SDS011;47345;52.334;10.392;2023-12-22T00:53:36;15.60;;;3.50;;
61477;SDS011;47345;52.334;10.392;2023-12-22T00:56:04;20.90;;;3.70;;
61477;SDS011;47345;52.334;10.392;2023-12-22T00:58:32;5.50;;;2.40;;
61477;SDS011;47345;52.334;10.392;2023-12-22T01:01:00;15.60;;;3.10;;
61477;SDS011;47345;52.334;10.392;2023-12-22T01:03:28;13.90;;;3.40;;
61477;SDS011;47345;52.334;10.392;2023-12-22T01:05:56;15.90;;;2.80;;
61477;SDS011;47345;52.334;10.392;2023-12-22T01:08:23;13.80;;;3.40;;
61477;SDS011;47345;52.334;10.392;2023-12-22T01:10:51;16.50;;;3.30;;
61477;SDS011;47345;52.334;10.392;2023-12-22T01:13:19;13.00;;;3.40;;
61477;SDS011;47345;52.334;10.392;2023-12-22T01:15:46;8.20;;;3.00;;
61477;SDS011;47345;52.334;10.392;2023-12-22T01:18:14;12.80;;;2.70;;
61477;SDS011;47345;52.334;10.392;2023-12-22T01:20:42;14.80;;;3.60;;
61477;SDS011;47345;52.334;10.392;2023-12-22T01:23:09;15.50;;;3.20;;
61477;SDS011;47345;52.334;10.392;2023-12-22T01:25:37;12.10;;;2.80;;
61477;SDS011;47345;52.334;10.392;2023-12-22T01:28:05;11.90;;;3.20;;
61477;SDS011;47345;52.334;10.392;2023-12-22T01:30:33;8.80;;;2.80;;
61477;SDS011;47345;52.334;10.392;2023-12-22T01:33:00;11.50;;;3.60;;
61477;SDS011;47345;52.334;10.392;2023-12-22T01:35:28;10.90;;;2.70;;
61477;SDS011;47345;52.334;10.392;2023-12-22T01:37:56;10.20;;;2.60;;
61477;SDS011;47345;52.334;10.392;2023-12-22T01:40:24;9.70;;;2.50;;
61477;SDS011;47345;52.334;10.392;2023-12-22T01:42:51;15.80;;;2.90;;
61477;SDS011;47345;52.334;10.392;2023-12-22T01:45:19;10.70;;;3.00;;
61477;SDS011;47345;52.334;10.392;2023-12-22T01:47:46;7.10;;;2.70;;
61477;SDS011;47345;52.334;10.392;2023-12-22T01:50:15;11.70;;;2.70;;
61477;SDS011;47345;52.334;10.392;2023-12-22T01:52:43;9.90;;;3.00;;
61477;SDS011;47345;52.334;10.392;2023-12-22T01:57:39;11.50;;;2.50;;
61477;SDS011;47345;52.334;10.392;2023-12-22T02:00:11;12.70;;;2.40;;
61477;SDS011;47345;52.334;10.392;2023-12-22T02:02:40;7.70;;;2.20;;
61477;SDS011;47345;52.334;10.392;2023-12-22T02:05:09;11.40;;;2.30;;
61477;SDS011;47345;52.334;10.392;2023-12-22T02:07:37;5.80;;;2.10;;
61477;SDS011;47345;52.334;10.392;2023-12-22T02:10:08;6.60;;;2.20;;
61477;SDS011;47345;52.334;10.392;2023-12-22T02:12:36;6.10;;;2.40;;
61477;SDS011;47345;52.334;10.392;2023-12-22T02:15:06;7.80;;;2.30;;
61477;SDS011;47345;52.334;10.392;2023-12-22T02:17:37;5.30;;;1.80;;
61477;SDS011;47345;52.334;10.392;2023-12-22T02:20:10;8.40;;;2.60;;
61477;SDS011;47345;52.334;10.392;2023-12-22T02:22:39;9.00;;;2.50;;
61477;SDS011;47345;52.334;10.392;2023-12-22T02:25:07;12.70;;;2.60;;
61477;SDS011;47345;52.334;10.392;2023-12-22T02:27:38;8.00;;;2.60;;
61477;SDS011;47345;52.334;10.392;2023-12-22T02:30:13;6.50;;;2.10;;
61477;SDS011;47345;52.334;10.392;2023-12-22T02:32:48;4.60;;;2.20;;
61477;SDS011;47345;52.334;10.392;2023-12-22T02:35:19;7.70;;;1.90;;
61477;SDS011;47345;52.334;10.392;2023-12-22T02:37:50;4.50;;;2.10;;
61477;SDS011;47345;52.334;10.392;2023-12-22T02:40:19;10.90;;;2.60;;
61477;SDS011;47345;52.334;10.392;2023-12-22T02:42:48;4.70;;;2.30;;
61477;SDS011;47345;52.334;10.392;2023-12-22T02:45:16;5.00;;;2.00;;
61477;SDS011;47345;52.334;10.392;2023-12-22T02:47:45;10.90;;;2.50;;
61477;SDS011;47345;52.334;10.392;2023-12-22T02:50:14;9.30;;;2.30;;
61477;SDS011;47345;52.334;10.392;2023-12-22T02:52:42;6.00;;;2.30;;
61477;SDS011;47345;52.334;10.392;2023-12-22T02:57:37;12.40;;;2.60;;
61477;SDS011;47345;52.334;10.392;2023-12-22T03:00:06;10.60;;;2.80;;
61477;SDS011;47345;52.334;10.392;2023-12-22T03:02:35;8.50;;;2.50;;
61477;SDS011;47345;52.334;10.392;2023-12-22T03:05:03;7.80;;;2.30;;
61477;SDS011;47345;52.334;10.392;2023-12-22T03:07:32;5.90;;;2.40;;
61477;SDS011;47345;52.334;10.392;2023-12-22T03:10:00;3.90;;;2.10;;
61477;SDS011;47345;52.334;10.392;2023-12-22T03:12:28;6.60;;;2.80;;
61477;SDS011;47345;52.334;10.392;2023-12-22T03:14:56;3.80;;;2.10;;
61477;SDS011;47345;52.334;10.392;2023-12-22T03:17:23;3.00;;;1.70;;
61477;SDS011;47345;52.334;10.392;2023-12-22T03:19:51;4.90;;;1.60;;
61477;SDS011;47345;52.334;10.392;2023-12-22T03:22:19;3.00;;;1.10;;
61477;SDS011;47345;52.334;10.392;2023-12-22T03:24:46;2.90;;;1.50;;
61477;SDS011;47345;52.334;10.392;2023-12-22T03:27:14;9.00;;;1.40;;
61477;SDS011;47345;52.334;10.392;2023-12-22T03:29:44;3.00;;;1.80;;
61477;SDS011;47345;52.334;10.392;2023-12-22T03:32:11;4.00;;;2.00;;
61477;SDS011;47345;52.334;10.392;2023-12-22T03:34:39;3.30;;;1.70;;
61477;SDS011;47345;52.334;10.392;2023-12-22T03:39:34;2.60;;;1.70;;
61477;SDS011;47345;52.334;10.392;2023-12-22T03:42:02;4.20;;;1.60;;
61477;SDS011;47345;52.334;10.392;2023-12-22T03:44:30;4.30;;;1.70;;
61477;SDS011;47345;52.334;10.392;2023-12-22T03:46:57;5.50;;;2.00;;
61477;SDS011;47345;52.334;10.392;2023-12-22T03:49:25;6.50;;;1.80;;
61477;SDS011;47345;52.334;10.392;2023-12-22T03:51:53;10.10;;;2.10;;
61477;SDS011;47345;52.334;10.392;2023-12-22T03:54:20;5.40;;;1.80;;
61477;SDS011;47345;52.334;10.392;2023-12-22T03:56:48;5.20;;;1.80;;
61477;SDS011;47345;52.334;10.392;2023-12-22T03:59:15;11.00;;;2.00;;
61477;SDS011;47345;52.334;10.392;2023-12-22T04:01:44;5.40;;;1.70;;
61477;SDS011;47345;52.334;10.392;2023-12-22T04:04:19;3.80;;;1.60;;
61477;SDS011;47345;52.334;10.392;2023-12-22T04:06:49;6.50;;;1.50;;
61477;SDS011;47345;52.334;10.392;2023-12-22T04:11:45;6.40;;;2.00;;
61477;SDS011;47345;52.334;10.392;2023-12-22T04:14:12;4.50;;;2.10;;
61477;SDS011;47345;52.334;10.392;2023-12-22T04:16:41;8.10;;;2.40;;
61477;SDS011;47345;52.334;10.392;2023-12-22T04:19:09;6.20;;;2.70;;
61477;SDS011;47345;52.334;10.392;2023-12-22T04:21:38;6.70;;;2.50;;
61477;SDS011;47345;52.334;10.392;2023-12-22T04:24:06;8.70;;;2.30;;
61477;SDS011;47345;52.334;10.392;2023-12-22T04:26:34;10.60;;;2.90;;
61477;SDS011;47345;52.334;10.392;2023-12-22T04:29:01;14.20;;;3.00;;
61477;SDS011;47345;52.334;10.392;2023-12-22T04:31:29;7.60;;;2.40;;
61477;SDS011;47345;52.334;10.392;2023-12-22T04:33:56;6.40;;;2.20;;
61477;SDS011;47345;52.334;10.392;2023-12-22T04:36:24;9.80;;;2.80;;
61477;SDS011;47345;52.334;10.392;2023-12-22T04:38:52;8.70;;;2.60;;
61477;SDS011;47345;52.334;10.392;2023-12-22T04:41:20;12.90;;;2.90;;
61477;SDS011;47345;52.334;10.392;2023-12-22T04:43:47;10.80;;;2.60;;
61477;SDS011;47345;52.334;10.392;2023-12-22T04:46:15;10.50;;;3.00;;
61477;SDS011;47345;52.334;10.392;2023-12-22T04:48:43;6.50;;;1.90;;
61477;SDS011;47345;52.334;10.392;2023-12-22T04:51:10;8.80;;;2.40;;
61477;SDS011;47345;52.334;10.392;2023-12-22T04:53:38;10.90;;;2.60;;
61477;SDS011;47345;52.334;10.392;2023-12-22T04:56:06;10.60;;;2.80;;
61477;SDS011;47345;52.334;10.392;2023-12-22T04:58:34;9.10;;;2.10;;
61477;SDS011;47345;52.334;10.392;2023-12-22T05:01:01;8.60;;;2.20;;
61477;SDS011;47345;52.334;10.392;2023-12-22T05:03:29;14.20;;;3.00;;
61477;SDS011;47345;52.334;10.392;2023-12-22T05:05:57;6.00;;;2.10;;
61477;SDS011;47345;52.334;10.392;2023-12-22T05:08:25;7.00;;;2.40;;
61477;SDS011;47345;52.334;10.392;2023-12-22T05:10:52;7.50;;;1.90;;
61477;SDS011;47345;52.334;10.392;2023-12-22T05:13:20;5.30;;;2.10;;
61477;SDS011;47345;52.334;10.392;2023-12-22T05:15:48;12.10;;;3.80;;
61477;SDS011;47345;52.334;10.392;2023-12-22T05:18:16;9.80;;;2.30;;
61477;SDS011;47345;52.334;10.392;2023-12-22T05:20:43;5.40;;;2.20;;
61477;SDS011;47345;52.334;10.392;2023-12-22T05:23:11;10.00;;;2.60;;
61477;SDS011;47345;52.334;10.392;2023-12-22T05:25:39;5.20;;;1.70;;
61477;SDS011;47345;52.334;10.392;2023-12-22T05:28:07;4.90;;;2.70;;
61477;SDS011;47345;52.334;10.392;2023-12-22T05:30:34;8.20;;;2.30;;
61477;SDS011;47345;52.334;10.392;2023-12-22T05:33:02;12.00;;;2.20;;
61477;SDS011;47345;52.334;10.392;2023-12-22T05:35:31;4.90;;;2.20;;
61477;SDS011;47345;52.334;10.392;2023-12-22T05:37:59;6.80;;;2.20;;
61477;SDS011;47345;52.334;10.392;2023-12-22T05:40:27;3.50;;;1.60;;
61477;SDS011;47345;52.334;10.392;2023-12-22T05:42:55;9.90;;;2.90;;
61477;SDS011;47345;52.334;10.392;2023-12-22T05:45:22;7.40;;;2.40;;
61477;SDS011;47345;52.334;10.392;2023-12-22T05:47:51;7.60;;;1.90;;
61477;SDS011;47345;52.334;10.392;2023-12-22T05:52:46;9.60;;;2.50;;
61477;SDS011;47345;52.334;10.392;2023-12-22T05:55:14;5.90;;;2.50;;
61477;SDS011;47345;52.334;10.392;2023-12-22T05:57:41;6.40;;;2.20;;
61477;SDS011;47345;52.334;10.392;2023-12-22T06:00:10;7.10;;;2.20;;
61477;SDS011;47345;52.334;10.392;2023-12-22T06:02:41;5.80;;;2.50;;
61477;SDS011;47345;52.334;10.392;2023-12-22T06:05:09;5.00;;;2.10;;
61477;SDS011;47345;52.334;10.392;2023-12-22T06:07:36;5.10;;;2.70;;
61477;SDS011;47345;52.334;10.392;2023-12-22T06:10:05;18.70;;;3.10;;
61477;SDS011;47345;52.334;10.392;2023-12-22T06:12:35;7.30;;;2.10;;
61477;SDS011;47345;52.334;10.392;2023-12-22T06:15:04;7.00;;;2.30;;
61477;SDS011;47345;52.334;10.392;2023-12-22T06:17:33;9.90;;;2.30;;
61477;SDS011;47345;52.334;10.392;2023-12-22T06:20:01;12.20;;;2.90;;
61477;SDS011;47345;52.334;10.392;2023-12-22T06:22:29;8.50;;;2.40;;
61477;SDS011;47345;52.334;10.392;2023-12-22T06:24:57;13.70;;;3.00;;
61477;SDS011;47345;52.334;10.392;2023-12-22T06:27:24;16.00;;;2.80;;
61477;SDS011;47345;52.334;10.392;2023-12-22T06:29:52;6.40;;;2.60;;
61477;SDS011;47345;52.334;10.392;2023-12-22T06:32:22;10.40;;;2.60;;
61477;SDS011;47345;52.334;10.392;2023-12-22T06:34:49;10.60;;;3.40;;
61477;SDS011;47345;52.334;10.392;2023-12-22T06:37:17;8.40;;;2.40;;
61477;SDS011;47345;52.334;10.392;2023-12-22T06:39:45;8.30;;;3.00;;
61477;SDS011;47345;52.334;10.392;2023-12-22T06:42:12;12.40;;;3.30;;
61477;SDS011;47345;52.334;10.392;2023-12-22T06:44:41;9.20;;;2.70;;
61477;SDS011;47345;52.334;10.392;2023-12-22T06:47:09;8.00;;;3.00;;
61477;SDS011;47345;52.334;10.392;2023-12-22T06:49:37;3.30;;;1.70;;
61477;SDS011;47345;52.334;10.392;2023-12-22T06:52:05;7.00;;;2.10;;
61477;SDS011;47345;52.334;10.392;2023-12-22T06:54:33;5.10;;;1.90;;
61477;SDS011;47345;52.334;10.392;2023-12-22T06:57:01;4.10;;;1.60;;
61477;SDS011;47345;52.334;10.392;2023-12-22T07:01:58;5.50;;;2.10;;
61477;SDS011;47345;52.334;10.392;2023-12-22T07:04:41;2.50;;;1.70;;
61477;SDS011;47345;52.334;10.392;2023-12-22T07:07:33;7.90;;;1.90;;
61477;SDS011;47345;52.334;10.392;2023-12-22T07:10:03;8.80;;;2.00;;
61477;SDS011;47345;52.334;10.392;2023-12-22T07:12:32;5.40;;;1.80;;
61477;SDS011;47345;52.334;10.392;2023-12-22T07:14:59;2.30;;;1.90;;
61477;SDS011;47345;52.334;10.392;2023-12-22T07:17:27;4.40;;;1.70;;
61477;SDS011;47345;52.334;10.392;2023-12-22T07:19:55;5.80;;;1.40;;
61477;SDS011;47345;52.334;10.392;2023-12-22T07:22:24;5.20;;;2.20;;
61477;SDS011;47345;52.334;10.392;2023-12-22T07:24:51;3.20;;;1.70;;
61477;SDS011;47345;52.334;10.392;2023-12-22T07:27:19;5.10;;;1.80;;
61477;SDS011;47345;52.334;10.392;2023-12-22T07:29:47;2.90;;;1.80;;
61477;SDS011;47345;52.334;10.392;2023-12-22T07:32:17;3.70;;;1.80;;
61477;SDS011;47345;52.334;10.392;2023-12-22T07:34:45;2.50;;;1.70;;
61477;SDS011;47345;52.334;10.392;2023-12-22T07:37:13;3.60;;;1.60;;
61477;SDS011;47345;52.334;10.392;2023-12-22T07:39:40;6.40;;;2.10;;
61477;SDS011;47345;52.334;10.392;2023-12-22T07:42:11;3.00;;;1.70;;
61477;SDS011;47345;52.334;10.392;2023-12-22T07:44:40;6.50;;;1.90;;
61477;SDS011;47345;52.334;10.392;2023-12-22T07:47:07;12.80;;;2.20;;
61477;SDS011;47345;52.334;10.392;2023-12-22T07:49:36;4.30;;;1.80;;
61477;SDS011;47345;52.334;10.392;2023-12-22T07:52:05;5.30;;;1.80;;
61477;SDS011;47345;52.334;10.392;2023-12-22T07:54:33;2.70;;;1.60;;
61477;SDS011;47345;52.334;10.392;2023-12-22T07:57:01;5.00;;;1.80;;
61477;SDS011;47345;52.334;10.392;2023-12-22T07:59:28;2.50;;;1.50;;
61477;SDS011;47345;52.334;10.392;2023-12-22T08:01:58;9.20;;;2.00;;
61477;SDS011;47345;52.334;10.392;2023-12-22T08:04:27;3.30;;;1.80;;
61477;SDS011;47345;52.334;10.392;2023-12-22T08:06:55;3.40;;;1.80;;
61477;SDS011;47345;52.334;10.392;2023-12-22T08:09:22;7.60;;;1.90;;
61477;SDS011;47345;52.334;10.392;2023-12-22T08:11:50;6.40;;;1.90;;
61477;SDS011;47345;52.334;10.392;2023-12-22T08:14:19;6.60;;;1.90;;
61477;SDS011;47345;52.334;10.392;2023-12-22T08:16:46;6.70;;;2.40;;
61477;SDS011;47345;52.334;10.392;2023-12-22T08:19:14;4.00;;;1.50;;
61477;SDS011;47345;52.334;10.392;2023-12-22T08:21:42;3.40;;;1.90;;
61477;SDS011;47345;52.334;10.392;2023-12-22T08:24:13;5.70;;;2.10;;
61477;SDS011;47345;52.334;10.392;2023-12-22T08:26:49;7.50;;;2.50;;
61477;SDS011;47345;52.334;10.392;2023-12-22T08:29:17;8.20;;;1.80;;
61477;SDS011;47345;52.334;10.392;2023-12-22T08:31:45;1.50;;;1.40;;
61477;SDS011;47345;52.334;10.392;2023-12-22T08:34:14;4.80;;;1.50;;
61477;SDS011;47345;52.334;10.392;2023-12-22T08:36:41;4.80;;;1.50;;
61477;SDS011;47345;52.334;10.392;2023-12-22T08:39:09;4.00;;;1.70;;
61477;SDS011;47345;52.334;10.392;2023-12-22T08:41:37;6.30;;;1.60;;
61477;SDS011;47345;52.334;10.392;2023-12-22T08:44:06;11.50;;;2.50;;
61477;SDS011;47345;52.334;10.392;2023-12-22T08:46:34;6.00;;;2.10;;
61477;SDS011;47345;52.334;10.392;2023-12-22T08:49:02;8.50;;;2.20;;
61477;SDS011;47345;52.334;10.392;2023-12-22T08:51:30;4.20;;;2.10;;
61477;SDS011;47345;52.334;10.392;2023-12-22T08:53:58;4.10;;;2.10;;
61477;SDS011;47345;52.334;10.392;2023-12-22T08:56:26;7.80;;;2.40;;
61477;SDS011;47345;52.334;10.392;2023-12-22T08:58:54;13.80;;;2.80;;
61477;SDS011;47345;52.334;10.392;2023-12-22T09:01:25;10.00;;;3.30;;
61477;SDS011;47345;52.334;10.392;2023-12-22T09:06:20;6.80;;;2.20;;
61477;SDS011;47345;52.334;10.392;2023-12-22T09:08:50;8.20;;;2.10;;
61477;SDS011;47345;52.334;10.392;2023-12-22T09:11:19;13.00;;;2.40;;
61477;SDS011;47345;52.334;10.392;2023-12-22T09:13:47;11.30;;;2.50;;
61477;SDS011;47345;52.334;10.392;2023-12-22T09:16:19;10.80;;;2.70;;
61477;SDS011;47345;52.334;10.392;2023-12-22T09:18:48;15.50;;;2.60;;
61477;SDS011;47345;52.334;10.392;2023-12-22T09:23:43;10.60;;;2.80;;
61477;SDS011;47345;52.334;10.392;2023-12-22T09:26:12;12.90;;;3.10;;
61477;SDS011;47345;52.334;10.392;2023-12-22T09:28:41;10.10;;;3.40;;
61477;SDS011;47345;52.334;10.392;2023-12-22T09:33:36;7.70;;;2.30;;
